Union, Kentucky
Current Conditions -  °F | °C
As of 4:52 PM on Saturday 20 Dec 2014 (Local Time) from KCVG Reporting Station
Haze Haze  
Wind Chill: 27°   Ceiling: 1500
Heat Index: 32°   Visibility: 6mi
Dew Point: 24°   Wind: 5mph
Humidity: 73%   Direction: 330°NNW
Pressure: 30.26"   Gusts: NA
Location:  38.95°N, 84.68°W
Report Text: KCVG 202152Z 33004KT 6SM HZ OVC015 00/M04 A3026 RMK AO2 SLP254 T00001044
Loading
Personal Weather Stations






























Interactive Weather Map New forecast layout! Learn more

10-Day Weather Forecast

Advertisements
Track Severe Weather on mobile